sensor_id;sensor_type;location;lat;lon;timestamp;P1;durP1;ratioP1;P2;durP2;ratioP2
21941;SDS011;11135;54.192;15.670;2023-04-10T00:00:20;11.85;;;6.00;;
21941;SDS011;11135;54.192;15.670;2023-04-10T00:03:48;12.40;;;6.47;;
21941;SDS011;11135;54.192;15.670;2023-04-10T00:06:58;14.13;;;6.78;;
21941;SDS011;11135;54.192;15.670;2023-04-10T00:10:15;19.60;;;8.35;;
21941;SDS011;11135;54.192;15.670;2023-04-10T00:13:21;15.15;;;8.20;;
21941;SDS011;11135;54.192;15.670;2023-04-10T00:16:33;12.85;;;7.07;;
21941;SDS011;11135;54.192;15.670;2023-04-10T00:19:43;12.63;;;7.40;;
21941;SDS011;11135;54.192;15.670;2023-04-10T00:22:50;16.08;;;8.38;;
21941;SDS011;11135;54.192;15.670;2023-04-10T00:26:01;14.90;;;8.68;;
21941;SDS011;11135;54.192;15.670;2023-04-10T00:29:11;17.77;;;9.18;;
21941;SDS011;11135;54.192;15.670;2023-04-10T00:32:18;14.98;;;7.78;;
21941;SDS011;11135;54.192;15.670;2023-04-10T00:35:31;12.60;;;7.38;;
21941;SDS011;11135;54.192;15.670;2023-04-10T00:38:42;13.32;;;7.50;;
21941;SDS011;11135;54.192;15.670;2023-04-10T00:41:53;17.60;;;7.90;;
21941;SDS011;11135;54.192;15.670;2023-04-10T00:45:01;12.43;;;7.15;;
21941;SDS011;11135;54.192;15.670;2023-04-10T00:48:08;16.48;;;7.22;;
21941;SDS011;11135;54.192;15.670;2023-04-10T00:51:16;23.65;;;8.95;;
21941;SDS011;11135;54.192;15.670;2023-04-10T00:54:24;21.73;;;9.00;;
21941;SDS011;11135;54.192;15.670;2023-04-10T00:57:37;18.55;;;7.40;;
21941;SDS011;11135;54.192;15.670;2023-04-10T01:01:00;15.30;;;8.18;;
21941;SDS011;11135;54.192;15.670;2023-04-10T01:04:10;19.30;;;9.25;;
21941;SDS011;11135;54.192;15.670;2023-04-10T01:07:20;15.05;;;7.53;;
21941;SDS011;11135;54.192;15.670;2023-04-10T01:10:33;13.77;;;7.00;;
21941;SDS011;11135;54.192;15.670;2023-04-10T01:13:52;12.95;;;7.43;;
21941;SDS011;11135;54.192;15.670;2023-04-10T01:17:00;13.30;;;6.28;;
21941;SDS011;11135;54.192;15.670;2023-04-10T01:20:12;8.82;;;5.57;;
21941;SDS011;11135;54.192;15.670;2023-04-10T01:27:01;16.25;;;7.85;;
21941;SDS011;11135;54.192;15.670;2023-04-10T01:30:15;16.30;;;7.22;;
21941;SDS011;11135;54.192;15.670;2023-04-10T01:33:28;14.20;;;6.70;;
21941;SDS011;11135;54.192;15.670;2023-04-10T01:36:37;15.05;;;6.78;;
21941;SDS011;11135;54.192;15.670;2023-04-10T01:39:48;12.25;;;6.82;;
21941;SDS011;11135;54.192;15.670;2023-04-10T01:42:57;14.40;;;6.72;;
21941;SDS011;11135;54.192;15.670;2023-04-10T01:46:08;9.88;;;5.78;;
21941;SDS011;11135;54.192;15.670;2023-04-10T01:49:20;14.52;;;7.70;;
21941;SDS011;11135;54.192;15.670;2023-04-10T01:52:29;11.00;;;7.03;;
21941;SDS011;11135;54.192;15.670;2023-04-10T01:55:35;12.48;;;7.80;;
21941;SDS011;11135;54.192;15.670;2023-04-10T01:58:41;15.20;;;8.35;;
21941;SDS011;11135;54.192;15.670;2023-04-10T02:01:54;13.95;;;8.07;;
21941;SDS011;11135;54.192;15.670;2023-04-10T02:05:00;15.80;;;9.10;;
21941;SDS011;11135;54.192;15.670;2023-04-10T02:08:07;13.75;;;8.90;;
21941;SDS011;11135;54.192;15.670;2023-04-10T02:11:20;17.40;;;9.47;;
21941;SDS011;11135;54.192;15.670;2023-04-10T02:14:38;17.45;;;9.95;;
21941;SDS011;11135;54.192;15.670;2023-04-10T02:17:54;18.25;;;8.80;;
21941;SDS011;11135;54.192;15.670;2023-04-10T02:21:03;16.98;;;8.40;;
21941;SDS011;11135;54.192;15.670;2023-04-10T02:24:15;14.75;;;8.13;;
21941;SDS011;11135;54.192;15.670;2023-04-10T02:27:26;13.68;;;8.40;;
21941;SDS011;11135;54.192;15.670;2023-04-10T02:30:39;14.93;;;8.60;;
21941;SDS011;11135;54.192;15.670;2023-04-10T02:33:50;15.13;;;8.63;;
21941;SDS011;11135;54.192;15.670;2023-04-10T02:36:57;15.32;;;9.48;;
21941;SDS011;11135;54.192;15.670;2023-04-10T02:40:08;18.58;;;9.30;;
21941;SDS011;11135;54.192;15.670;2023-04-10T02:43:15;13.75;;;7.82;;
21941;SDS011;11135;54.192;15.670;2023-04-10T02:46:22;13.45;;;7.43;;
21941;SDS011;11135;54.192;15.670;2023-04-10T02:49:37;14.83;;;8.33;;
21941;SDS011;11135;54.192;15.670;2023-04-10T02:52:42;14.43;;;8.52;;
21941;SDS011;11135;54.192;15.670;2023-04-10T02:55:51;14.25;;;7.45;;
21941;SDS011;11135;54.192;15.670;2023-04-10T02:58:56;14.35;;;8.30;;
21941;SDS011;11135;54.192;15.670;2023-04-10T03:02:04;15.27;;;8.20;;
21941;SDS011;11135;54.192;15.670;2023-04-10T03:05:14;14.40;;;7.55;;
21941;SDS011;11135;54.192;15.670;2023-04-10T03:08:22;14.45;;;7.88;;
21941;SDS011;11135;54.192;15.670;2023-04-10T03:11:31;15.70;;;8.70;;
21941;SDS011;11135;54.192;15.670;2023-04-10T03:14:42;17.75;;;8.55;;
21941;SDS011;11135;54.192;15.670;2023-04-10T03:17:49;13.73;;;7.78;;
21941;SDS011;11135;54.192;15.670;2023-04-10T03:20:59;16.63;;;8.80;;
21941;SDS011;11135;54.192;15.670;2023-04-10T03:24:07;20.33;;;8.70;;
21941;SDS011;11135;54.192;15.670;2023-04-10T03:27:14;14.50;;;8.13;;
21941;SDS011;11135;54.192;15.670;2023-04-10T03:30:25;18.45;;;9.10;;
21941;SDS011;11135;54.192;15.670;2023-04-10T03:33:31;15.07;;;7.75;;
21941;SDS011;11135;54.192;15.670;2023-04-10T03:36:43;13.55;;;8.27;;
21941;SDS011;11135;54.192;15.670;2023-04-10T03:39:49;16.75;;;8.13;;
21941;SDS011;11135;54.192;15.670;2023-04-10T03:42:56;18.50;;;8.27;;
21941;SDS011;11135;54.192;15.670;2023-04-10T03:46:02;16.08;;;8.20;;
21941;SDS011;11135;54.192;15.670;2023-04-10T03:49:08;19.95;;;10.23;;
21941;SDS011;11135;54.192;15.670;2023-04-10T03:52:18;15.90;;;9.00;;
21941;SDS011;11135;54.192;15.670;2023-04-10T03:55:33;17.15;;;8.32;;
21941;SDS011;11135;54.192;15.670;2023-04-10T03:58:43;14.95;;;9.15;;
21941;SDS011;11135;54.192;15.670;2023-04-10T04:01:48;15.48;;;9.25;;
21941;SDS011;11135;54.192;15.670;2023-04-10T04:04:55;15.02;;;9.60;;
21941;SDS011;11135;54.192;15.670;2023-04-10T04:08:05;18.13;;;10.25;;
21941;SDS011;11135;54.192;15.670;2023-04-10T04:11:11;14.65;;;9.30;;
21941;SDS011;11135;54.192;15.670;2023-04-10T04:14:18;16.65;;;9.30;;
21941;SDS011;11135;54.192;15.670;2023-04-10T04:17:25;20.80;;;10.32;;
21941;SDS011;11135;54.192;15.670;2023-04-10T04:20:32;19.50;;;11.35;;
21941;SDS011;11135;54.192;15.670;2023-04-10T04:23:44;15.82;;;8.88;;
21941;SDS011;11135;54.192;15.670;2023-04-10T04:26:49;14.82;;;8.57;;
21941;SDS011;11135;54.192;15.670;2023-04-10T04:29:57;18.17;;;9.00;;
21941;SDS011;11135;54.192;15.670;2023-04-10T04:33:06;13.07;;;8.23;;
21941;SDS011;11135;54.192;15.670;2023-04-10T04:36:14;15.50;;;8.57;;
21941;SDS011;11135;54.192;15.670;2023-04-10T04:39:24;18.58;;;9.75;;
21941;SDS011;11135;54.192;15.670;2023-04-10T04:42:34;19.88;;;10.75;;
21941;SDS011;11135;54.192;15.670;2023-04-10T04:45:43;18.77;;;12.05;;
21941;SDS011;11135;54.192;15.670;2023-04-10T04:48:51;22.15;;;12.02;;
21941;SDS011;11135;54.192;15.670;2023-04-10T04:51:59;17.00;;;10.85;;
21941;SDS011;11135;54.192;15.670;2023-04-10T04:55:09;17.17;;;11.23;;
21941;SDS011;11135;54.192;15.670;2023-04-10T04:58:15;18.55;;;10.00;;
21941;SDS011;11135;54.192;15.670;2023-04-10T05:01:22;19.90;;;10.32;;
21941;SDS011;11135;54.192;15.670;2023-04-10T05:04:29;20.50;;;11.55;;
21941;SDS011;11135;54.192;15.670;2023-04-10T05:07:38;19.35;;;11.63;;
21941;SDS011;11135;54.192;15.670;2023-04-10T05:10:49;17.48;;;11.32;;
21941;SDS011;11135;54.192;15.670;2023-04-10T05:13:57;19.40;;;10.93;;
21941;SDS011;11135;54.192;15.670;2023-04-10T05:17:03;15.68;;;9.82;;
21941;SDS011;11135;54.192;15.670;2023-04-10T05:20:10;17.90;;;10.15;;
21941;SDS011;11135;54.192;15.670;2023-04-10T05:23:15;21.67;;;12.07;;
21941;SDS011;11135;54.192;15.670;2023-04-10T05:26:26;19.63;;;11.13;;
21941;SDS011;11135;54.192;15.670;2023-04-10T05:29:33;19.65;;;11.50;;
21941;SDS011;11135;54.192;15.670;2023-04-10T05:32:39;18.65;;;11.05;;
21941;SDS011;11135;54.192;15.670;2023-04-10T05:35:46;16.40;;;10.45;;
21941;SDS011;11135;54.192;15.670;2023-04-10T05:38:52;18.48;;;10.60;;
21941;SDS011;11135;54.192;15.670;2023-04-10T05:42:01;16.67;;;9.93;;
21941;SDS011;11135;54.192;15.670;2023-04-10T05:45:19;18.60;;;10.70;;
21941;SDS011;11135;54.192;15.670;2023-04-10T05:48:24;19.75;;;10.80;;
21941;SDS011;11135;54.192;15.670;2023-04-10T05:51:31;22.15;;;11.43;;
21941;SDS011;11135;54.192;15.670;2023-04-10T05:54:39;18.90;;;11.13;;
21941;SDS011;11135;54.192;15.670;2023-04-10T05:57:53;17.95;;;11.45;;
21941;SDS011;11135;54.192;15.670;2023-04-10T06:01:03;18.75;;;12.73;;
21941;SDS011;11135;54.192;15.670;2023-04-10T06:04:15;20.95;;;11.30;;
21941;SDS011;11135;54.192;15.670;2023-04-10T06:07:38;16.67;;;10.20;;
21941;SDS011;11135;54.192;15.670;2023-04-10T06:10:46;17.92;;;9.23;;
21941;SDS011;11135;54.192;15.670;2023-04-10T06:13:58;15.38;;;10.02;;
21941;SDS011;11135;54.192;15.670;2023-04-10T06:17:07;16.13;;;9.27;;
21941;SDS011;11135;54.192;15.670;2023-04-10T06:20:13;15.90;;;8.45;;
21941;SDS011;11135;54.192;15.670;2023-04-10T06:23:19;12.95;;;8.43;;
21941;SDS011;11135;54.192;15.670;2023-04-10T06:26:32;12.98;;;7.55;;
21941;SDS011;11135;54.192;15.670;2023-04-10T06:29:41;14.82;;;9.07;;
21941;SDS011;11135;54.192;15.670;2023-04-10T06:32:47;12.40;;;7.90;;
21941;SDS011;11135;54.192;15.670;2023-04-10T06:36:07;11.93;;;6.97;;
21941;SDS011;11135;54.192;15.670;2023-04-10T06:40:00;14.48;;;6.72;;
21941;SDS011;11135;54.192;15.670;2023-04-10T06:43:09;10.82;;;6.38;;
21941;SDS011;11135;54.192;15.670;2023-04-10T06:46:25;12.73;;;7.78;;
21941;SDS011;11135;54.192;15.670;2023-04-10T06:49:34;10.37;;;5.87;;
21941;SDS011;11135;54.192;15.670;2023-04-10T06:52:46;9.55;;;5.50;;
21941;SDS011;11135;54.192;15.670;2023-04-10T06:56:01;9.18;;;5.30;;
21941;SDS011;11135;54.192;15.670;2023-04-10T06:59:09;10.75;;;5.55;;
21941;SDS011;11135;54.192;15.670;2023-04-10T07:02:21;8.70;;;5.70;;
21941;SDS011;11135;54.192;15.670;2023-04-10T07:05:28;11.80;;;5.85;;
21941;SDS011;11135;54.192;15.670;2023-04-10T07:08:38;8.27;;;5.30;;
21941;SDS011;11135;54.192;15.670;2023-04-10T07:11:48;8.60;;;5.40;;
21941;SDS011;11135;54.192;15.670;2023-04-10T07:14:58;7.85;;;5.10;;
21941;SDS011;11135;54.192;15.670;2023-04-10T07:18:09;9.45;;;5.70;;
21941;SDS011;11135;54.192;15.670;2023-04-10T07:21:16;7.35;;;4.85;;
21941;SDS011;11135;54.192;15.670;2023-04-10T07:24:38;10.70;;;5.60;;
21941;SDS011;11135;54.192;15.670;2023-04-10T07:27:52;7.95;;;4.85;;
21941;SDS011;11135;54.192;15.670;2023-04-10T07:31:03;8.70;;;4.68;;
21941;SDS011;11135;54.192;15.670;2023-04-10T07:34:14;9.38;;;4.90;;
21941;SDS011;11135;54.192;15.670;2023-04-10T07:37:29;8.98;;;5.00;;
21941;SDS011;11135;54.192;15.670;2023-04-10T07:40:37;8.43;;;5.18;;
21941;SDS011;11135;54.192;15.670;2023-04-10T07:43:45;8.88;;;5.25;;
21941;SDS011;11135;54.192;15.670;2023-04-10T07:46:53;9.88;;;5.53;;
21941;SDS011;11135;54.192;15.670;2023-04-10T07:50:07;9.13;;;5.82;;
21941;SDS011;11135;54.192;15.670;2023-04-10T07:53:25;10.48;;;5.13;;
21941;SDS011;11135;54.192;15.670;2023-04-10T07:56:35;9.40;;;4.97;;
21941;SDS011;11135;54.192;15.670;2023-04-10T07:59:42;7.75;;;4.35;;
21941;SDS011;11135;54.192;15.670;2023-04-10T08:02:49;7.35;;;4.95;;
21941;SDS011;11135;54.192;15.670;2023-04-10T08:05:59;7.97;;;4.55;;
21941;SDS011;11135;54.192;15.670;2023-04-10T08:09:06;8.30;;;4.90;;
21941;SDS011;11135;54.192;15.670;2023-04-10T08:12:12;8.38;;;5.10;;
21941;SDS011;11135;54.192;15.670;2023-04-10T08:15:22;8.65;;;4.82;;
21941;SDS011;11135;54.192;15.670;2023-04-10T08:18:28;6.85;;;4.15;;
21941;SDS011;11135;54.192;15.670;2023-04-10T08:21:36;7.53;;;4.60;;
21941;SDS011;11135;54.192;15.670;2023-04-10T08:24:56;7.32;;;3.97;;
21941;SDS011;11135;54.192;15.670;2023-04-10T08:28:02;9.48;;;6.10;;
21941;SDS011;11135;54.192;15.670;2023-04-10T08:31:09;6.20;;;3.65;;
21941;SDS011;11135;54.192;15.670;2023-04-10T08:34:14;7.05;;;4.13;;
21941;SDS011;11135;54.192;15.670;2023-04-10T08:37:25;7.40;;;4.10;;
21941;SDS011;11135;54.192;15.670;2023-04-10T08:40:40;11.77;;;5.25;;
21941;SDS011;11135;54.192;15.670;2023-04-10T08:43:47;6.00;;;4.18;;
21941;SDS011;11135;54.192;15.670;2023-04-10T08:46:57;8.48;;;4.57;;
21941;SDS011;11135;54.192;15.670;2023-04-10T08:50:05;7.68;;;4.75;;
21941;SDS011;11135;54.192;15.670;2023-04-10T08:53:14;7.32;;;4.75;;
21941;SDS011;11135;54.192;15.670;2023-04-10T08:56:22;6.78;;;4.32;;
21941;SDS011;11135;54.192;15.670;2023-04-10T08:59:28;7.93;;;4.40;;
21941;SDS011;11135;54.192;15.670;2023-04-10T09:02:41;8.82;;;5.45;;
21941;SDS011;11135;54.192;15.670;2023-04-10T09:05:49;7.90;;;5.22;;
21941;SDS011;11135;54.192;15.670;2023-04-10T09:08:57;9.13;;;5.28;;
21941;SDS011;11135;54.192;15.670;2023-04-10T09:12:15;8.43;;;5.88;;
21941;SDS011;11135;54.192;15.670;2023-04-10T09:15:21;9.48;;;6.20;;
21941;SDS011;11135;54.192;15.670;2023-04-10T09:18:43;10.70;;;7.50;;
21941;SDS011;11135;54.192;15.670;2023-04-10T09:21:58;12.15;;;7.95;;
21941;SDS011;11135;54.192;15.670;2023-04-10T09:25:18;9.93;;;7.35;;
21941;SDS011;11135;54.192;15.670;2023-04-10T09:28:46;12.25;;;8.77;;
21941;SDS011;11135;54.192;15.670;2023-04-10T09:32:00;10.57;;;7.88;;
21941;SDS011;11135;54.192;15.670;2023-04-10T09:35:14;14.20;;;9.60;;
21941;SDS011;11135;54.192;15.670;2023-04-10T09:38:20;12.95;;;9.80;;
21941;SDS011;11135;54.192;15.670;2023-04-10T09:41:33;11.77;;;8.73;;
21941;SDS011;11135;54.192;15.670;2023-04-10T09:44:40;9.48;;;6.25;;
21941;SDS011;11135;54.192;15.670;2023-04-10T09:47:58;9.20;;;6.07;;
21941;SDS011;11135;54.192;15.670;2023-04-10T09:51:09;10.73;;;6.32;;
21941;SDS011;11135;54.192;15.670;2023-04-10T09:54:42;11.73;;;6.65;;
21941;SDS011;11135;54.192;15.670;2023-04-10T09:57:52;10.88;;;5.60;;
21941;SDS011;11135;54.192;15.670;2023-04-10T10:01:03;10.77;;;5.50;;
21941;SDS011;11135;54.192;15.670;2023-04-10T10:04:13;7.78;;;5.35;;
21941;SDS011;11135;54.192;15.670;2023-04-10T10:07:22;9.90;;;5.53;;
21941;SDS011;11135;54.192;15.670;2023-04-10T10:10:31;11.00;;;5.80;;
21941;SDS011;11135;54.192;15.670;2023-04-10T10:13:43;8.15;;;6.10;;
21941;SDS011;11135;54.192;15.670;2023-04-10T10:16:51;10.75;;;5.40;;
21941;SDS011;11135;54.192;15.670;2023-04-10T10:20:01;9.85;;;5.53;;
21941;SDS011;11135;54.192;15.670;2023-04-10T10:23:07;10.73;;;5.40;;
21941;SDS011;11135;54.192;15.670;2023-04-10T10:26:12;6.25;;;4.63;;
21941;SDS011;11135;54.192;15.670;2023-04-10T10:29:21;9.18;;;5.28;;
21941;SDS011;11135;54.192;15.670;2023-04-10T10:32:28;9.63;;;6.15;;
21941;SDS011;11135;54.192;15.670;2023-04-10T10:35:33;8.15;;;4.75;;
21941;SDS011;11135;54.192;15.670;2023-04-10T10:38:43;6.50;;;5.00;;
21941;SDS011;11135;54.192;15.670;2023-04-10T10:42:05;8.57;;;5.15;;
21941;SDS011;11135;54.192;15.670;2023-04-10T10:45:22;9.05;;;4.75;;
21941;SDS011;11135;54.192;15.670;2023-04-10T10:48:27;7.32;;;4.65;;
21941;SDS011;11135;54.192;15.670;2023-04-10T10:51:41;7.25;;;4.45;;
21941;SDS011;11135;54.192;15.670;2023-04-10T10:54:47;6.75;;;4.20;;
21941;SDS011;11135;54.192;15.670;2023-04-10T10:58:01;7.43;;;4.63;;
21941;SDS011;11135;54.192;15.670;2023-04-10T11:01:10;9.00;;;4.43;;
21941;SDS011;11135;54.192;15.670;2023-04-10T11:10:59;7.53;;;4.72;;
21941;SDS011;11135;54.192;15.670;2023-04-10T11:14:12;7.18;;;4.60;;
21941;SDS011;11135;54.192;15.670;2023-04-10T11:24:06;6.63;;;4.47;;
21941;SDS011;11135;54.192;15.670;2023-04-10T11:30:34;6.20;;;3.80;;
21941;SDS011;11135;54.192;15.670;2023-04-10T11:33:46;6.65;;;4.15;;
21941;SDS011;11135;54.192;15.670;2023-04-10T11:36:53;5.88;;;4.15;;
21941;SDS011;11135;54.192;15.670;2023-04-10T11:40:07;8.50;;;4.38;;
21941;SDS011;11135;54.192;15.670;2023-04-10T11:43:13;9.90;;;4.35;;
21941;SDS011;11135;54.192;15.670;2023-04-10T11:46:24;8.68;;;4.22;;
21941;SDS011;11135;54.192;15.670;2023-04-10T11:49:31;7.30;;;4.30;;
21941;SDS011;11135;54.192;15.670;2023-04-10T11:52:38;9.40;;;4.13;;
21941;SDS011;11135;54.192;15.670;2023-04-10T11:55:49;6.35;;;4.43;;
21941;SDS011;11135;54.192;15.670;2023-04-10T11:58:55;7.05;;;4.57;;
21941;SDS011;11135;54.192;15.670;2023-04-10T12:02:03;6.55;;;4.68;;
21941;SDS011;11135;54.192;15.670;2023-04-10T12:05:10;11.13;;;5.00;;
21941;SDS011;11135;54.192;15.670;2023-04-10T12:08:16;6.97;;;4.55;;
21941;SDS011;11135;54.192;15.670;2023-04-10T12:11:25;6.40;;;4.05;;
21941;SDS011;11135;54.192;15.670;2023-04-10T12:14:35;6.28;;;4.00;;
21941;SDS011;11135;54.192;15.670;2023-04-10T12:17:41;6.07;;;3.67;;
21941;SDS011;11135;54.192;15.670;2023-04-10T12:20:50;5.38;;;3.60;;
21941;SDS011;11135;54.192;15.670;2023-04-10T12:24:01;7.18;;;3.95;;
21941;SDS011;11135;54.192;15.670;2023-04-10T12:27:13;4.53;;;3.15;;
21941;SDS011;11135;54.192;15.670;2023-04-10T12:30:22;5.80;;;3.35;;
21941;SDS011;11135;54.192;15.670;2023-04-10T12:33:32;5.93;;;3.80;;
21941;SDS011;11135;54.192;15.670;2023-04-10T12:36:38;5.63;;;3.95;;
21941;SDS011;11135;54.192;15.670;2023-04-10T12:39:46;6.93;;;3.85;;
21941;SDS011;11135;54.192;15.670;2023-04-10T12:42:55;6.28;;;3.80;;
21941;SDS011;11135;54.192;15.670;2023-04-10T12:46:06;7.32;;;4.57;;
21941;SDS011;11135;54.192;15.670;2023-04-10T12:49:12;6.50;;;4.05;;
21941;SDS011;11135;54.192;15.670;2023-04-10T12:52:21;6.95;;;3.90;;
21941;SDS011;11135;54.192;15.670;2023-04-10T12:55:29;7.50;;;3.95;;
21941;SDS011;11135;54.192;15.670;2023-04-10T12:58:42;6.78;;;3.90;;
21941;SDS011;11135;54.192;15.670;2023-04-10T13:01:54;6.72;;;4.32;;
21941;SDS011;11135;54.192;15.670;2023-04-10T13:05:03;6.50;;;3.88;;
21941;SDS011;11135;54.192;15.670;2023-04-10T13:08:09;6.82;;;3.80;;
21941;SDS011;11135;54.192;15.670;2023-04-10T13:11:15;6.40;;;4.15;;
21941;SDS011;11135;54.192;15.670;2023-04-10T13:14:25;6.55;;;4.15;;
21941;SDS011;11135;54.192;15.670;2023-04-10T13:17:35;6.15;;;3.67;;
21941;SDS011;11135;54.192;15.670;2023-04-10T13:20:43;8.20;;;4.60;;
21941;SDS011;11135;54.192;15.670;2023-04-10T13:23:51;7.30;;;4.78;;
21941;SDS011;11135;54.192;15.670;2023-04-10T13:26:59;7.68;;;4.15;;
21941;SDS011;11135;54.192;15.670;2023-04-10T13:30:10;5.32;;;3.72;;
21941;SDS011;11135;54.192;15.670;2023-04-10T13:33:15;7.35;;;3.88;;
21941;SDS011;11135;54.192;15.670;2023-04-10T13:36:21;5.40;;;3.17;;
21941;SDS011;11135;54.192;15.670;2023-04-10T13:39:28;6.40;;;3.70;;
21941;SDS011;11135;54.192;15.670;2023-04-10T13:42:33;5.28;;;3.78;;
21941;SDS011;11135;54.192;15.670;2023-04-10T13:45:46;6.88;;;3.95;;
21941;SDS011;11135;54.192;15.670;2023-04-10T13:48:55;5.70;;;3.53;;
21941;SDS011;11135;54.192;15.670;2023-04-10T13:52:03;5.93;;;3.10;;
21941;SDS011;11135;54.192;15.670;2023-04-10T13:55:09;4.60;;;3.20;;
21941;SDS011;11135;54.192;15.670;2023-04-10T13:58:15;6.53;;;3.28;;
21941;SDS011;11135;54.192;15.670;2023-04-10T14:01:27;4.90;;;3.22;;
21941;SDS011;11135;54.192;15.670;2023-04-10T14:04:32;5.93;;;3.35;;
21941;SDS011;11135;54.192;15.670;2023-04-10T14:07:39;6.15;;;3.83;;
21941;SDS011;11135;54.192;15.670;2023-04-10T14:10:46;6.55;;;3.80;;
21941;SDS011;11135;54.192;15.670;2023-04-10T14:13:55;5.93;;;3.15;;
21941;SDS011;11135;54.192;15.670;2023-04-10T14:17:03;5.20;;;3.25;;
21941;SDS011;11135;54.192;15.670;2023-04-10T14:20:15;6.78;;;4.00;;
21941;SDS011;11135;54.192;15.670;2023-04-10T14:23:20;5.40;;;3.05;;
21941;SDS011;11135;54.192;15.670;2023-04-10T14:26:28;5.35;;;3.35;;
21941;SDS011;11135;54.192;15.670;2023-04-10T14:29:46;8.50;;;4.93;;
21941;SDS011;11135;54.192;15.670;2023-04-10T14:32:59;5.55;;;3.88;;
21941;SDS011;11135;54.192;15.670;2023-04-10T14:36:05;5.93;;;3.58;;
21941;SDS011;11135;54.192;15.670;2023-04-10T14:39:13;5.45;;;3.28;;
21941;SDS011;11135;54.192;15.670;2023-04-10T14:42:18;8.07;;;3.80;;
21941;SDS011;11135;54.192;15.670;2023-04-10T14:45:25;7.60;;;3.90;;
21941;SDS011;11135;54.192;15.670;2023-04-10T14:48:33;6.63;;;3.15;;
21941;SDS011;11135;54.192;15.670;2023-04-10T14:51:42;6.80;;;3.70;;
21941;SDS011;11135;54.192;15.670;2023-04-10T14:54:51;5.35;;;3.47;;
21941;SDS011;11135;54.192;15.670;2023-04-10T14:57:56;7.82;;;3.28;;
21941;SDS011;11135;54.192;15.670;2023-04-10T15:01:06;6.15;;;2.95;;
21941;SDS011;11135;54.192;15.670;2023-04-10T15:04:18;5.45;;;3.53;;
21941;SDS011;11135;54.192;15.670;2023-04-10T15:07:26;6.03;;;3.03;;
21941;SDS011;11135;54.192;15.670;2023-04-10T15:10:35;5.28;;;3.03;;
21941;SDS011;11135;54.192;15.670;2023-04-10T15:13:40;6.30;;;3.10;;
21941;SDS011;11135;54.192;15.670;2023-04-10T15:16:46;9.90;;;5.40;;
21941;SDS011;11135;54.192;15.670;2023-04-10T15:19:58;6.80;;;3.67;;
21941;SDS011;11135;54.192;15.670;2023-04-10T15:26:12;7.25;;;3.80;;
21941;SDS011;11135;54.192;15.670;2023-04-10T15:29:18;7.00;;;3.92;;
21941;SDS011;11135;54.192;15.670;2023-04-10T15:32:23;6.07;;;3.80;;
21941;SDS011;11135;54.192;15.670;2023-04-10T15:35:33;5.50;;;2.97;;
21941;SDS011;11135;54.192;15.670;2023-04-10T15:38:38;6.53;;;4.00;;
21941;SDS011;11135;54.192;15.670;2023-04-10T15:41:43;7.63;;;4.03;;
21941;SDS011;11135;54.192;15.670;2023-04-10T15:44:51;9.52;;;4.25;;
21941;SDS011;11135;54.192;15.670;2023-04-10T15:47:59;6.35;;;4.38;;
21941;SDS011;11135;54.192;15.670;2023-04-10T15:51:11;6.18;;;3.58;;
21941;SDS011;11135;54.192;15.670;2023-04-10T15:54:17;5.53;;;3.50;;
21941;SDS011;11135;54.192;15.670;2023-04-10T15:57:26;4.72;;;3.30;;
21941;SDS011;11135;54.192;15.670;2023-04-10T16:00:32;6.03;;;3.50;;
21941;SDS011;11135;54.192;15.670;2023-04-10T16:03:41;7.57;;;3.20;;
21941;SDS011;11135;54.192;15.670;2023-04-10T16:06:52;6.47;;;4.68;;
21941;SDS011;11135;54.192;15.670;2023-04-10T16:10:00;6.45;;;3.13;;
21941;SDS011;11135;54.192;15.670;2023-04-10T16:13:14;6.95;;;3.72;;
21941;SDS011;11135;54.192;15.670;2023-04-10T16:16:22;5.47;;;3.15;;
21941;SDS011;11135;54.192;15.670;2023-04-10T16:19:34;6.43;;;3.95;;
21941;SDS011;11135;54.192;15.670;2023-04-10T16:22:43;7.78;;;3.88;;
21941;SDS011;11135;54.192;15.670;2023-04-10T16:25:52;6.38;;;3.80;;
21941;SDS011;11135;54.192;15.670;2023-04-10T16:29:07;5.82;;;3.92;;
21941;SDS011;11135;54.192;15.670;2023-04-10T16:32:14;8.77;;;4.07;;
21941;SDS011;11135;54.192;15.670;2023-04-10T16:35:20;6.05;;;4.45;;
21941;SDS011;11135;54.192;15.670;2023-04-10T16:38:30;7.60;;;5.05;;
21941;SDS011;11135;54.192;15.670;2023-04-10T16:41:35;7.93;;;5.28;;
21941;SDS011;11135;54.192;15.670;2023-04-10T16:44:46;9.25;;;4.97;;
21941;SDS011;11135;54.192;15.670;2023-04-10T16:47:52;6.55;;;4.53;;
21941;SDS011;11135;54.192;15.670;2023-04-10T16:51:13;10.20;;;4.38;;
21941;SDS011;11135;54.192;15.670;2023-04-10T16:54:24;6.85;;;4.22;;
21941;SDS011;11135;54.192;15.670;2023-04-10T16:57:34;7.97;;;4.22;;
21941;SDS011;11135;54.192;15.670;2023-04-10T17:00:41;8.02;;;4.80;;
21941;SDS011;11135;54.192;15.670;2023-04-10T17:03:55;10.80;;;6.40;;
21941;SDS011;11135;54.192;15.670;2023-04-10T17:07:02;12.68;;;6.90;;
21941;SDS011;11135;54.192;15.670;2023-04-10T17:10:13;11.90;;;6.30;;
21941;SDS011;11135;54.192;15.670;2023-04-10T17:13:19;11.43;;;7.07;;
21941;SDS011;11135;54.192;15.670;2023-04-10T17:16:26;14.55;;;8.05;;
21941;SDS011;11135;54.192;15.670;2023-04-10T17:19:32;24.77;;;11.38;;
21941;SDS011;11135;54.192;15.670;2023-04-10T17:22:38;65.05;;;42.00;;
21941;SDS011;11135;54.192;15.670;2023-04-10T17:25:47;24.17;;;17.45;;
21941;SDS011;11135;54.192;15.670;2023-04-10T17:29:02;21.25;;;17.63;;
21941;SDS011;11135;54.192;15.670;2023-04-10T17:32:07;19.92;;;16.27;;
21941;SDS011;11135;54.192;15.670;2023-04-10T17:35:14;22.15;;;18.65;;
21941;SDS011;11135;54.192;15.670;2023-04-10T17:38:19;10.55;;;8.25;;
21941;SDS011;11135;54.192;15.670;2023-04-10T17:41:28;9.32;;;7.65;;
21941;SDS011;11135;54.192;15.670;2023-04-10T17:44:34;9.95;;;6.38;;
21941;SDS011;11135;54.192;15.670;2023-04-10T17:47:41;9.85;;;6.40;;
21941;SDS011;11135;54.192;15.670;2023-04-10T17:50:46;10.27;;;6.70;;
21941;SDS011;11135;54.192;15.670;2023-04-10T17:53:57;14.35;;;10.80;;
21941;SDS011;11135;54.192;15.670;2023-04-10T17:57:05;29.17;;;23.48;;
21941;SDS011;11135;54.192;15.670;2023-04-10T18:00:13;18.20;;;14.15;;
21941;SDS011;11135;54.192;15.670;2023-04-10T18:03:21;25.65;;;18.70;;
21941;SDS011;11135;54.192;15.670;2023-04-10T18:06:28;17.17;;;13.43;;
21941;SDS011;11135;54.192;15.670;2023-04-10T18:09:33;14.10;;;11.77;;
21941;SDS011;11135;54.192;15.670;2023-04-10T18:12:42;16.33;;;14.15;;
21941;SDS011;11135;54.192;15.670;2023-04-10T18:15:48;15.82;;;12.73;;
21941;SDS011;11135;54.192;15.670;2023-04-10T18:18:55;16.67;;;12.82;;
21941;SDS011;11135;54.192;15.670;2023-04-10T18:22:00;13.50;;;8.95;;
21941;SDS011;11135;54.192;15.670;2023-04-10T18:25:07;12.50;;;9.82;;
21941;SDS011;11135;54.192;15.670;2023-04-10T18:28:18;14.10;;;9.63;;
21941;SDS011;11135;54.192;15.670;2023-04-10T18:31:25;11.68;;;7.07;;
21941;SDS011;11135;54.192;15.670;2023-04-10T18:34:45;13.00;;;6.32;;
21941;SDS011;11135;54.192;15.670;2023-04-10T18:37:51;7.15;;;4.70;;
21941;SDS011;11135;54.192;15.670;2023-04-10T18:41:01;7.22;;;5.00;;
21941;SDS011;11135;54.192;15.670;2023-04-10T18:44:12;8.98;;;4.68;;
21941;SDS011;11135;54.192;15.670;2023-04-10T18:47:17;6.85;;;4.70;;
21941;SDS011;11135;54.192;15.670;2023-04-10T18:50:26;8.68;;;5.32;;
21941;SDS011;11135;54.192;15.670;2023-04-10T18:53:34;9.70;;;5.00;;
21941;SDS011;11135;54.192;15.670;2023-04-10T18:56:43;8.25;;;4.75;;